createdAt,value
2022-10-25T00:00:22.363Z,3.47
2022-10-25T00:01:27.674Z,4.10
2022-10-25T00:02:34.244Z,3.38
2022-10-25T00:03:36.705Z,3.13
2022-10-25T00:04:38.962Z,3.40
2022-10-25T00:05:42.108Z,3.78
2022-10-25T00:06:44.296Z,3.30
2022-10-25T00:07:46.716Z,3.63
2022-10-25T00:08:49.401Z,3.90
2022-10-25T00:09:51.680Z,3.92
2022-10-25T00:10:53.996Z,3.22
2022-10-25T00:11:56.198Z,3.30
2022-10-25T00:12:58.633Z,3.10
2022-10-25T00:14:04.427Z,3.00
2022-10-25T00:15:07.095Z,3.50
2022-10-25T00:16:15.403Z,3.58
2022-10-25T00:17:17.618Z,3.08
2022-10-25T00:18:19.956Z,2.97
2022-10-25T00:19:22.157Z,3.47
2022-10-25T00:20:24.656Z,3.78
2022-10-25T00:21:27.057Z,3.28
2022-10-25T00:22:29.346Z,3.20
2022-10-25T00:23:31.476Z,3.78
2022-10-25T00:24:33.633Z,3.38
2022-10-25T00:25:36.131Z,3.28
2022-10-25T00:26:41.206Z,3.38
2022-10-25T00:27:43.771Z,3.28
2022-10-25T00:28:46.304Z,3.40
2022-10-25T00:29:48.462Z,3.30
2022-10-25T00:31:02.872Z,3.38
2022-10-25T00:32:05.057Z,3.40
2022-10-25T00:33:07.322Z,3.33
2022-10-25T00:34:09.759Z,3.47
2022-10-25T00:35:12.131Z,3.20
2022-10-25T00:36:26.084Z,3.50
2022-10-25T00:37:28.315Z,3.40
2022-10-25T00:38:30.664Z,3.25
2022-10-25T00:39:32.874Z,3.47
2022-10-25T00:40:35.192Z,3.38
2022-10-25T00:41:37.682Z,3.63
2022-10-25T00:42:39.868Z,3.78
2022-10-25T00:43:49.294Z,3.08
2022-10-25T00:44:54.711Z,3.17
2022-10-25T00:45:57.275Z,3.78
2022-10-25T00:46:59.653Z,3.47
2022-10-25T00:48:06.319Z,3.15
2022-10-25T00:49:19.264Z,3.15
2022-10-25T00:50:35.876Z,2.58
2022-10-25T00:51:47.013Z,2.70
2022-10-25T00:52:53.383Z,3.03
2022-10-25T00:53:56.371Z,3.33
2022-10-25T00:54:59.807Z,3.75
2022-10-25T00:56:07.659Z,3.28
2022-10-25T00:57:15.995Z,3.15
2022-10-25T00:58:22.217Z,3.55
2022-10-25T00:59:27.176Z,2.90
2022-10-25T01:00:29.747Z,3.30
2022-10-25T01:01:32.868Z,3.15
2022-10-25T01:02:35.402Z,3.17
2022-10-25T01:03:40.043Z,2.88
2022-10-25T01:04:43.669Z,3.50
2022-10-25T01:05:46.882Z,3.10
2022-10-25T01:06:51.033Z,3.63
2022-10-25T01:07:53.393Z,3.47
2022-10-25T01:08:57.226Z,3.03
2022-10-25T01:09:59.412Z,2.97
2022-10-25T01:11:01.713Z,3.20
2022-10-25T01:12:04.313Z,3.22
2022-10-25T01:13:08.137Z,3.28
2022-10-25T01:14:13.094Z,2.97
2022-10-25T01:15:15.487Z,3.47
2022-10-25T01:16:33.593Z,2.90
2022-10-25T01:17:51.500Z,3.33
2022-10-25T01:19:25.022Z,2.80
2022-10-25T01:20:58.979Z,2.78
2022-10-25T01:22:26.681Z,2.80
2022-10-25T01:23:47.035Z,2.97
2022-10-25T01:25:04.076Z,3.15
2022-10-25T01:26:15.301Z,2.92
2022-10-25T01:27:20.733Z,3.17
2022-10-25T01:28:37.772Z,3.30
2022-10-25T01:29:52.845Z,3.10
2022-10-25T01:30:55.080Z,2.97
2022-10-25T01:32:21.269Z,3.30
2022-10-25T01:33:35.038Z,3.05
2022-10-25T01:35:06.962Z,3.15
2022-10-25T01:36:27.058Z,3.05
2022-10-25T01:37:47.936Z,2.70
2022-10-25T01:39:10.873Z,2.92
2022-10-25T01:40:28.806Z,3.13
2022-10-25T01:41:50.194Z,3.08
2022-10-25T01:43:21.310Z,3.35
2022-10-25T01:45:45.986Z,2.95
2022-10-25T01:46:59.723Z,3.47
2022-10-25T01:48:28.858Z,3.40
2022-10-25T01:49:58.151Z,3.20
2022-10-25T01:51:10.612Z,2.80
2022-10-25T01:52:14.934Z,3.33
2022-10-25T01:53:17.191Z,3.17
2022-10-25T01:54:25.169Z,3.33
2022-10-25T01:55:52.308Z,3.70
2022-10-25T01:57:00.216Z,2.70
2022-10-25T01:58:21.154Z,3.08
2022-10-25T01:59:45.946Z,2.75
2022-10-25T02:01:07.350Z,2.90
2022-10-25T02:02:24.267Z,3.30
2022-10-25T02:04:05.022Z,3.20
2022-10-25T02:05:21.098Z,2.95
2022-10-25T02:06:34.804Z,3.42
2022-10-25T02:07:51.264Z,3.00
2022-10-25T02:09:05.907Z,3.28
2022-10-25T02:10:16.466Z,3.03
2022-10-25T02:11:28.252Z,3.47
2022-10-25T02:12:35.689Z,2.72
2022-10-25T02:14:04.720Z,3.22
2022-10-25T02:15:20.654Z,2.83
2022-10-25T02:16:32.517Z,3.10
2022-10-25T02:17:41.119Z,3.05
2022-10-25T02:18:49.368Z,2.35
2022-10-25T02:19:55.793Z,3.05
2022-10-25T02:20:59.273Z,2.85
2022-10-25T02:22:04.333Z,3.03
2022-10-25T02:23:06.819Z,3.10
2022-10-25T02:24:13.519Z,3.30
2022-10-25T02:25:16.762Z,2.63
2022-10-25T02:26:21.421Z,2.83
2022-10-25T02:27:25.910Z,2.75
2022-10-25T02:28:29.140Z,2.85
2022-10-25T02:29:34.397Z,2.83
2022-10-25T02:30:38.495Z,2.83
2022-10-25T02:31:41.081Z,2.78
2022-10-25T02:32:46.512Z,2.65
2022-10-25T02:33:49.176Z,2.78
2022-10-25T02:34:54.146Z,2.95
2022-10-25T02:36:28.879Z,2.70
2022-10-25T02:37:33.770Z,2.35
2022-10-25T02:38:36.362Z,2.88
2022-10-25T02:39:39.164Z,2.70
2022-10-25T02:40:41.332Z,3.30
2022-10-25T02:41:43.693Z,2.88
2022-10-25T02:42:46.005Z,2.95
2022-10-25T02:43:48.472Z,2.83
2022-10-25T02:44:50.753Z,3.25
2022-10-25T02:45:53.057Z,2.83
2022-10-25T02:46:55.624Z,2.85
2022-10-25T02:47:57.920Z,2.80
2022-10-25T02:49:00.097Z,2.97
2022-10-25T02:50:02.634Z,2.95
2022-10-25T02:51:06.412Z,2.78
2022-10-25T02:52:11.530Z,2.72
2022-10-25T02:53:13.989Z,2.70
2022-10-25T02:54:16.193Z,2.53
2022-10-25T02:55:18.530Z,3.10
2022-10-25T02:56:22.390Z,3.00
2022-10-25T02:57:24.527Z,2.80
2022-10-25T02:58:31.142Z,2.72
2022-10-25T02:59:33.288Z,2.40
2022-10-25T03:00:35.598Z,3.03
2022-10-25T03:01:38.418Z,2.30
2022-10-25T03:02:40.897Z,3.00
2022-10-25T03:03:43.490Z,2.60
2022-10-25T03:04:45.644Z,2.45
2022-10-25T03:05:47.928Z,2.80
2022-10-25T03:06:50.159Z,2.92
2022-10-25T03:07:52.471Z,2.33
2022-10-25T03:08:54.665Z,2.75
2022-10-25T03:09:56.792Z,3.13
2022-10-25T03:10:59.686Z,2.72
2022-10-25T03:12:01.957Z,2.60
2022-10-25T03:13:04.392Z,2.55
2022-10-25T03:14:06.524Z,2.50
2022-10-25T03:15:09.208Z,3.13
2022-10-25T03:16:11.567Z,3.15
2022-10-25T03:17:14.971Z,3.35
2022-10-25T03:18:17.586Z,3.00
2022-10-25T03:19:19.724Z,2.35
2022-10-25T03:20:21.864Z,2.35
2022-10-25T03:21:24.336Z,2.75
2022-10-25T03:22:26.644Z,3.03
2022-10-25T03:23:29.385Z,3.10
2022-10-25T03:24:31.545Z,2.78
2022-10-25T03:25:34.088Z,3.38
2022-10-25T03:26:36.261Z,3.20
2022-10-25T03:27:38.563Z,2.92
2022-10-25T03:28:40.862Z,2.55
2022-10-25T03:29:43.086Z,2.38
2022-10-25T03:30:45.414Z,3.20
2022-10-25T03:31:47.562Z,2.55
2022-10-25T03:32:49.845Z,2.35
2022-10-25T03:33:52.173Z,2.53
2022-10-25T03:34:54.320Z,2.20
2022-10-25T03:35:56.607Z,3.22
2022-10-25T03:36:58.838Z,3.10
2022-10-25T03:38:01.144Z,2.88
2022-10-25T03:39:03.433Z,3.05
2022-10-25T03:40:06.128Z,2.88
2022-10-25T03:41:08.828Z,2.60
2022-10-25T03:42:10.954Z,2.40
2022-10-25T03:43:13.173Z,4.25
2022-10-25T03:44:15.617Z,3.08
2022-10-25T03:45:21.422Z,2.72
2022-10-25T03:46:24.354Z,3.15
2022-10-25T03:47:26.687Z,5.95
2022-10-25T03:48:28.815Z,2.70
2022-10-25T03:49:31.464Z,2.88
2022-10-25T03:50:33.616Z,2.60
2022-10-25T03:51:35.750Z,2.97
2022-10-25T03:52:38.504Z,2.65
2022-10-25T03:53:40.805Z,2.50
2022-10-25T03:54:43.366Z,2.92
2022-10-25T03:55:45.524Z,2.70
2022-10-25T03:56:47.975Z,2.20
2022-10-25T03:57:50.246Z,3.00
2022-10-25T03:58:53.397Z,2.35
2022-10-25T03:59:55.607Z,2.28
2022-10-25T04:00:59.973Z,2.70
2022-10-25T04:02:02.389Z,3.28
2022-10-25T04:04:15.382Z,2.63
2022-10-25T04:05:17.527Z,2.90
2022-10-25T04:06:19.673Z,2.92
2022-10-25T04:07:24.899Z,3.00
2022-10-25T04:08:27.214Z,3.22
2022-10-25T04:09:32.630Z,2.50
2022-10-25T04:10:34.891Z,2.83
2022-10-25T04:11:37.968Z,2.80
2022-10-25T04:12:40.248Z,2.72
2022-10-25T04:13:42.607Z,2.90
2022-10-25T04:14:44.909Z,2.53
2022-10-25T04:15:47.057Z,2.70
2022-10-25T04:16:49.186Z,3.20
2022-10-25T04:17:52.590Z,2.72
2022-10-25T04:18:54.969Z,3.53
2022-10-25T04:19:57.247Z,2.70
2022-10-25T04:20:59.389Z,3.03
2022-10-25T04:22:06.791Z,2.60
2022-10-25T04:23:08.930Z,3.28
2022-10-25T04:24:11.443Z,2.50
2022-10-25T04:25:13.646Z,3.05
2022-10-25T04:26:18.291Z,3.13
2022-10-25T04:27:23.357Z,3.05
2022-10-25T04:28:26.228Z,3.67
2022-10-25T04:29:28.664Z,2.95
2022-10-25T04:30:33.916Z,2.35
2022-10-25T04:31:38.747Z,3.10
2022-10-25T04:32:41.097Z,2.80
2022-10-25T04:33:46.602Z,2.92
2022-10-25T04:34:51.351Z,3.53
2022-10-25T04:35:59.548Z,3.10
2022-10-25T04:37:01.828Z,3.03
2022-10-25T04:38:04.200Z,2.95
2022-10-25T04:39:06.536Z,2.60
2022-10-25T04:40:09.558Z,3.10
2022-10-25T04:41:11.732Z,3.83
2022-10-25T04:42:14.046Z,3.05
2022-10-25T04:43:16.335Z,3.55
2022-10-25T04:44:18.573Z,3.15
2022-10-25T04:45:22.068Z,2.78
2022-10-25T04:46:24.219Z,2.88
2022-10-25T04:47:26.511Z,2.72
2022-10-25T04:48:29.542Z,2.45
2022-10-25T04:49:31.883Z,3.10
2022-10-25T04:50:34.301Z,2.97
2022-10-25T04:51:36.447Z,3.00
2022-10-25T04:52:38.582Z,2.60
2022-10-25T04:53:41.174Z,3.10
2022-10-25T04:54:43.334Z,3.08
2022-10-25T04:55:54.909Z,2.80
2022-10-25T04:56:57.380Z,3.95
2022-10-25T04:57:59.578Z,3.30
2022-10-25T04:59:01.723Z,2.90
2022-10-25T05:00:05.031Z,2.88
2022-10-25T05:01:18.207Z,2.58
2022-10-25T05:02:20.577Z,3.10
2022-10-25T05:03:22.920Z,3.00
2022-10-25T05:04:25.136Z,3.30
2022-10-25T05:05:27.553Z,2.97
2022-10-25T05:06:29.708Z,2.85
2022-10-25T05:07:31.990Z,3.03
2022-10-25T05:08:34.824Z,2.78
2022-10-25T05:09:37.126Z,2.85
2022-10-25T05:10:39.569Z,2.97
2022-10-25T05:11:41.699Z,2.90
2022-10-25T05:12:44.140Z,3.35
2022-10-25T05:13:47.310Z,3.30
2022-10-25T05:14:49.467Z,3.83
2022-10-25T05:15:58.781Z,3.88
2022-10-25T05:17:00.944Z,4.18
2022-10-25T05:18:03.262Z,3.45
2022-10-25T05:19:05.659Z,3.40
2022-10-25T05:20:08.383Z,3.55
2022-10-25T05:21:10.618Z,3.22
2022-10-25T05:22:12.799Z,3.45
2022-10-25T05:23:15.017Z,3.10
2022-10-25T05:24:17.711Z,3.47
2022-10-25T05:25:20.181Z,2.60
2022-10-25T05:26:22.416Z,3.40
2022-10-25T05:27:24.739Z,3.28
2022-10-25T05:28:27.210Z,3.10
2022-10-25T05:29:29.578Z,2.67
2022-10-25T05:30:32.211Z,3.10
2022-10-25T05:31:34.375Z,3.08
2022-10-25T05:32:36.528Z,3.45
2022-10-25T05:33:39.297Z,3.28
2022-10-25T05:34:41.633Z,3.42
2022-10-25T05:35:45.932Z,3.25
2022-10-25T05:36:48.150Z,3.08
2022-10-25T05:37:50.432Z,2.78
2022-10-25T05:38:56.232Z,3.40
2022-10-25T05:39:58.458Z,3.08
2022-10-25T05:41:03.462Z,2.88
2022-10-25T05:42:06.413Z,3.38
2022-10-25T05:43:08.569Z,3.13
2022-10-25T05:44:10.981Z,3.85
2022-10-25T05:45:13.266Z,3.25
2022-10-25T05:46:21.219Z,3.50
2022-10-25T05:47:23.396Z,2.78
2022-10-25T05:48:25.679Z,3.28
2022-10-25T05:49:27.810Z,3.58
2022-10-25T05:50:33.209Z,3.13
2022-10-25T05:51:39.467Z,3.60
2022-10-25T05:52:48.133Z,3.75
2022-10-25T05:53:55.699Z,3.50
2022-10-25T05:54:57.858Z,3.97
2022-10-25T05:56:00.538Z,4.28
2022-10-25T05:57:02.720Z,4.40
2022-10-25T05:58:04.859Z,3.40
2022-10-25T05:59:09.411Z,3.55
2022-10-25T06:00:12.468Z,3.83
2022-10-25T06:01:20.032Z,3.97
2022-10-25T06:02:24.427Z,3.30
2022-10-25T06:03:27.011Z,3.95
2022-10-25T06:04:29.323Z,3.70
2022-10-25T06:05:32.953Z,4.40
2022-10-25T06:06:36.589Z,4.93
2022-10-25T06:07:41.763Z,3.95
2022-10-25T06:08:44.599Z,3.58
2022-10-25T06:09:46.736Z,3.92
2022-10-25T06:10:49.216Z,3.80
2022-10-25T06:11:51.341Z,3.78
2022-10-25T06:12:53.934Z,3.75
2022-10-25T06:13:56.482Z,3.65
2022-10-25T06:14:58.634Z,3.42
2022-10-25T06:16:08.849Z,3.40
2022-10-25T06:17:13.731Z,4.00
2022-10-25T06:18:16.976Z,3.28
2022-10-25T06:19:19.121Z,3.08
2022-10-25T06:20:21.251Z,3.13
2022-10-25T06:21:26.467Z,3.10
2022-10-25T06:22:28.601Z,2.88
2022-10-25T06:23:36.435Z,2.95
2022-10-25T06:24:38.854Z,3.22
2022-10-25T06:25:41.225Z,4.00
2022-10-25T06:26:43.435Z,3.40
2022-10-25T06:27:48.666Z,4.03
2022-10-25T06:28:55.816Z,3.00
2022-10-25T06:29:58.121Z,2.72
2022-10-25T06:31:06.316Z,3.13
2022-10-25T06:32:11.512Z,2.90
2022-10-25T06:33:13.712Z,2.97
2022-10-25T06:34:16.000Z,2.38
2022-10-25T06:35:18.336Z,2.90
2022-10-25T06:36:27.352Z,2.58
2022-10-25T06:37:32.445Z,3.05
2022-10-25T06:38:34.659Z,2.70
2022-10-25T06:39:36.800Z,3.10
2022-10-25T06:40:39.091Z,2.78
2022-10-25T06:41:41.331Z,2.70
2022-10-25T06:42:44.704Z,2.83
2022-10-25T06:43:47.416Z,2.90
2022-10-25T06:44:49.571Z,2.97
2022-10-25T06:45:52.119Z,2.70
2022-10-25T06:48:16.590Z,2.42
2022-10-25T06:49:18.790Z,2.53
2022-10-25T06:50:20.961Z,2.75
2022-10-25T06:51:24.918Z,4.60
2022-10-25T06:52:28.903Z,3.05
2022-10-25T06:53:31.587Z,3.03
2022-10-25T06:54:33.810Z,3.25
2022-10-25T06:55:36.183Z,2.45
2022-10-25T06:56:38.352Z,2.70
2022-10-25T06:57:40.857Z,2.72
2022-10-25T06:58:43.070Z,2.38
2022-10-25T06:59:45.966Z,2.05
2022-10-25T07:00:49.662Z,2.67
2022-10-25T07:01:54.966Z,2.30
2022-10-25T07:02:59.352Z,2.50
2022-10-25T07:04:04.361Z,2.80
2022-10-25T07:05:06.732Z,2.70
2022-10-25T07:06:15.143Z,2.40
2022-10-25T07:07:17.530Z,2.63
2022-10-25T07:08:19.697Z,3.33
2022-10-25T07:09:21.855Z,4.50
2022-10-25T07:10:24.179Z,3.05
2022-10-25T07:11:28.570Z,2.75
2022-10-25T07:12:33.549Z,2.45
2022-10-25T07:13:35.893Z,2.60
2022-10-25T07:14:40.855Z,2.25
2022-10-25T07:15:43.024Z,2.50
2022-10-25T07:16:45.318Z,2.40
2022-10-25T07:17:47.724Z,2.38
2022-10-25T07:18:50.386Z,3.10
2022-10-25T07:19:52.888Z,4.35
2022-10-25T07:21:01.626Z,2.63
2022-10-25T07:22:03.773Z,2.38
2022-10-25T07:23:08.785Z,2.78
2022-10-25T07:24:11.226Z,2.47
2022-10-25T07:25:13.461Z,2.45
2022-10-25T07:26:30.864Z,3.40
2022-10-25T07:27:36.280Z,2.85
2022-10-25T07:28:38.922Z,2.75
2022-10-25T07:29:41.817Z,2.47
2022-10-25T07:30:53.558Z,2.78
2022-10-25T07:31:55.980Z,2.60
2022-10-25T07:32:58.327Z,2.13
2022-10-25T07:34:02.601Z,2.58
2022-10-25T07:35:05.103Z,2.72
2022-10-25T07:36:11.182Z,3.67
2022-10-25T07:37:13.901Z,4.45
2022-10-25T07:38:17.074Z,4.45
2022-10-25T07:39:19.227Z,3.13
2022-10-25T07:40:21.407Z,2.85
2022-10-25T07:41:24.857Z,3.00
2022-10-25T07:42:26.998Z,2.55
2022-10-25T07:43:29.820Z,2.95
2022-10-25T07:44:32.005Z,2.42
2022-10-25T07:45:34.187Z,1.63
2022-10-25T07:46:36.379Z,1.75
2022-10-25T07:47:38.670Z,2.15
2022-10-25T07:48:40.901Z,2.72
2022-10-25T07:49:43.045Z,2.78
2022-10-25T07:50:45.427Z,2.60
2022-10-25T07:51:47.600Z,3.92
2022-10-25T07:52:49.858Z,3.15
2022-10-25T07:53:53.460Z,1.80
2022-10-25T07:54:55.720Z,2.20
2022-10-25T07:55:58.064Z,1.85
2022-10-25T07:57:03.032Z,1.83
2022-10-25T07:58:07.543Z,2.90
2022-10-25T07:59:09.928Z,2.33
2022-10-25T08:00:12.546Z,3.28
2022-10-25T08:01:19.805Z,2.60
2022-10-25T08:02:25.499Z,2.70
2022-10-25T08:03:28.690Z,2.17
2022-10-25T08:04:33.008Z,2.20
2022-10-25T08:05:35.415Z,2.28
2022-10-25T08:06:37.574Z,2.40
2022-10-25T08:07:39.865Z,2.58
2022-10-25T08:08:42.935Z,2.25
2022-10-25T08:09:45.120Z,2.10
2022-10-25T08:10:47.276Z,2.30
2022-10-25T08:11:49.405Z,1.92
2022-10-25T08:12:51.912Z,2.00
2022-10-25T08:13:54.032Z,2.33
2022-10-25T08:14:56.321Z,2.10
2022-10-25T08:15:58.533Z,1.88
2022-10-25T08:17:00.993Z,2.55
2022-10-25T08:18:04.420Z,1.95
2022-10-25T08:19:09.498Z,1.98
2022-10-25T08:20:11.871Z,1.88
2022-10-25T08:21:14.281Z,2.03
2022-10-25T08:22:16.418Z,2.33
2022-10-25T08:23:18.784Z,1.98
2022-10-25T08:24:21.171Z,2.33
2022-10-25T08:25:26.144Z,1.80
2022-10-25T08:26:36.446Z,2.20
2022-10-25T08:27:42.000Z,1.50
2022-10-25T08:28:46.689Z,2.03
2022-10-25T08:29:48.835Z,2.40
2022-10-25T08:30:55.685Z,2.22
2022-10-25T08:32:02.043Z,1.88
2022-10-25T08:33:06.489Z,1.50
2022-10-25T08:35:18.759Z,2.50
2022-10-25T08:36:21.289Z,3.53
2022-10-25T08:37:23.580Z,2.58
2022-10-25T08:38:25.747Z,2.00
2022-10-25T08:39:27.964Z,2.40
2022-10-25T08:40:52.938Z,2.05
2022-10-25T08:41:58.446Z,2.05
2022-10-25T08:43:33.030Z,2.05
2022-10-25T08:44:44.326Z,1.98
2022-10-25T08:45:52.236Z,1.80
2022-10-25T08:47:17.817Z,1.98
2022-10-25T08:48:24.556Z,1.77
2022-10-25T08:49:44.953Z,1.70
2022-10-25T08:50:55.827Z,1.65
2022-10-25T08:53:06.491Z,1.63
2022-10-25T08:54:39.389Z,1.63
2022-10-25T08:55:58.734Z,2.22
2022-10-25T08:57:19.777Z,2.15
2022-10-25T08:58:28.225Z,2.50
2022-10-25T08:59:34.295Z,1.83
2022-10-25T09:00:39.647Z,2.38
2022-10-25T09:01:53.800Z,1.65
2022-10-25T09:02:59.535Z,1.67
2022-10-25T09:04:01.807Z,1.90
2022-10-25T09:05:09.534Z,1.83
2022-10-25T09:06:39.826Z,1.83
2022-10-25T09:08:15.950Z,1.27
2022-10-25T09:09:41.558Z,1.70
2022-10-25T09:11:08.377Z,1.30
2022-10-25T09:12:23.915Z,1.35
2022-10-25T09:13:41.051Z,2.08
2022-10-25T09:15:04.332Z,2.30
2022-10-25T09:16:16.434Z,1.70
2022-10-25T09:17:31.104Z,1.75
2022-10-25T09:18:57.370Z,1.95
2022-10-25T09:20:11.158Z,1.70
2022-10-25T09:21:22.669Z,1.75
2022-10-25T09:22:28.310Z,1.80
2022-10-25T09:23:33.643Z,1.92
2022-10-25T09:24:58.133Z,2.10
2022-10-25T09:26:24.954Z,2.50
2022-10-25T09:27:30.082Z,1.30
2022-10-25T09:28:35.316Z,2.78
2022-10-25T09:29:46.395Z,1.88
2022-10-25T09:30:53.140Z,2.47
2022-10-25T09:31:58.704Z,1.92
2022-10-25T09:33:04.341Z,2.03
2022-10-25T09:34:10.581Z,2.20
2022-10-25T09:35:18.578Z,3.00
2022-10-25T09:36:21.507Z,3.97
2022-10-25T09:37:42.551Z,4.32
2022-10-25T09:40:11.522Z,1.92
2022-10-25T09:41:25.480Z,1.65
2022-10-25T09:42:30.526Z,1.75
2022-10-25T09:43:39.647Z,1.85
2022-10-25T09:44:49.388Z,1.88
2022-10-25T09:45:57.001Z,1.55
2022-10-25T09:47:30.442Z,1.70
2022-10-25T09:48:46.602Z,1.75
2022-10-25T09:50:16.095Z,1.98
2022-10-25T09:51:39.806Z,1.70
2022-10-25T09:54:13.782Z,2.05
2022-10-25T09:55:32.991Z,1.52
2022-10-25T09:56:35.278Z,1.85
2022-10-25T09:57:37.990Z,2.00
2022-10-25T09:58:42.762Z,1.75
2022-10-25T09:59:50.320Z,1.50
2022-10-25T10:00:55.854Z,2.05
2022-10-25T10:01:58.387Z,2.17
2022-10-25T10:03:00.914Z,1.88
2022-10-25T10:04:26.835Z,1.88
2022-10-25T10:05:30.735Z,1.77
2022-10-25T10:06:38.066Z,2.60
2022-10-25T10:07:41.478Z,1.80
2022-10-25T10:08:52.765Z,2.35
2022-10-25T10:09:58.701Z,3.15
2022-10-25T10:11:01.103Z,2.70
2022-10-25T10:12:06.648Z,2.72
2022-10-25T10:13:33.931Z,2.58
2022-10-25T10:14:38.425Z,2.22
2022-10-25T10:16:04.846Z,1.60
2022-10-25T10:17:13.814Z,1.75
2022-10-25T10:18:34.835Z,2.22
2022-10-25T10:19:37.333Z,1.27
2022-10-25T10:20:39.909Z,1.38
2022-10-25T10:21:46.696Z,1.40
2022-10-25T10:22:54.311Z,1.50
2022-10-25T10:24:05.444Z,1.80
2022-10-25T10:25:16.754Z,2.05
2022-10-25T10:26:37.288Z,1.80
2022-10-25T10:27:41.328Z,1.90
2022-10-25T10:28:49.207Z,1.70
2022-10-25T10:29:57.376Z,1.55
2022-10-25T10:30:59.873Z,1.98
2022-10-25T10:32:06.521Z,1.98
2022-10-25T10:33:16.417Z,1.75
2022-10-25T10:34:50.810Z,1.90
2022-10-25T10:35:54.573Z,3.22
2022-10-25T10:37:20.718Z,3.42
2022-10-25T10:38:27.818Z,1.95
2022-10-25T10:39:30.734Z,2.25
2022-10-25T10:40:32.932Z,1.90
2022-10-25T10:41:35.970Z,1.60
2022-10-25T10:42:42.913Z,1.77
2022-10-25T10:43:45.118Z,1.58
2022-10-25T10:45:15.512Z,1.88
2022-10-25T10:46:24.901Z,2.20
2022-10-25T10:47:31.710Z,1.83
2022-10-25T10:48:42.992Z,1.75
2022-10-25T10:49:46.467Z,1.83
2022-10-25T10:50:51.093Z,1.40
2022-10-25T10:51:53.483Z,1.77
2022-10-25T10:52:59.437Z,2.05
2022-10-25T10:54:18.699Z,2.10
2022-10-25T10:55:32.874Z,1.92
2022-10-25T10:56:35.177Z,2.03
2022-10-25T10:57:37.357Z,1.92
2022-10-25T10:58:42.025Z,1.58
2022-10-25T10:59:55.664Z,1.58
2022-10-25T11:01:10.087Z,1.75
2022-10-25T11:02:33.506Z,1.70
2022-10-25T11:03:49.205Z,3.00
2022-10-25T11:05:02.640Z,2.15
2022-10-25T11:06:26.883Z,2.25
2022-10-25T11:07:34.817Z,1.85
2022-10-25T11:08:37.125Z,1.58
2022-10-25T11:09:39.532Z,1.55
2022-10-25T11:10:41.827Z,1.48
2022-10-25T11:11:45.611Z,1.60
2022-10-25T11:13:18.051Z,1.70
2022-10-25T11:14:21.793Z,1.80
2022-10-25T11:15:24.416Z,1.58
2022-10-25T11:16:38.658Z,1.83
2022-10-25T11:17:54.349Z,1.85
2022-10-25T11:19:09.588Z,1.77
2022-10-25T11:20:38.429Z,2.10
2022-10-25T11:21:49.810Z,3.22
2022-10-25T11:23:11.383Z,2.03
2022-10-25T11:24:35.697Z,1.80
2022-10-25T11:25:45.952Z,1.67
2022-10-25T11:26:56.180Z,2.13
2022-10-25T11:28:07.394Z,1.67
2022-10-25T11:29:34.133Z,2.00
2022-10-25T11:31:02.638Z,1.30
2022-10-25T11:32:14.995Z,1.80
2022-10-25T11:33:21.576Z,1.60
2022-10-25T11:34:34.640Z,1.80
2022-10-25T11:36:06.076Z,1.73
2022-10-25T11:37:41.322Z,1.55
2022-10-25T11:38:49.162Z,1.30
2022-10-25T11:40:09.944Z,1.52
2022-10-25T11:41:33.944Z,1.60
2022-10-25T11:42:54.700Z,1.15
2022-10-25T11:44:14.781Z,1.25
2022-10-25T11:45:40.498Z,1.70
2022-10-25T11:46:52.833Z,1.70
2022-10-25T11:48:35.446Z,2.03
2022-10-25T11:49:57.047Z,1.70
2022-10-25T11:51:06.880Z,1.63
2022-10-25T11:52:22.033Z,2.05
2022-10-25T11:53:49.114Z,1.15
2022-10-25T11:54:55.396Z,1.60
2022-10-25T11:56:07.416Z,1.85
2022-10-25T11:57:12.650Z,1.98
2022-10-25T11:58:50.108Z,2.15
2022-10-25T12:00:11.841Z,1.65
2022-10-25T12:01:20.608Z,2.05
2022-10-25T12:02:31.867Z,1.38
2022-10-25T12:03:40.247Z,1.45
2022-10-25T12:04:48.222Z,1.85
2022-10-25T12:05:56.337Z,2.30
2022-10-25T12:07:10.469Z,1.55
2022-10-25T12:08:54.728Z,1.98
2022-10-25T12:10:09.050Z,1.73
2022-10-25T12:11:18.947Z,2.00
2022-10-25T12:12:39.647Z,1.53
2022-10-25T12:13:46.252Z,1.40
2022-10-25T12:14:54.472Z,1.50
2022-10-25T12:15:58.566Z,1.65
2022-10-25T12:17:03.130Z,1.95
2022-10-25T12:18:14.409Z,1.40
2022-10-25T12:19:23.073Z,1.85
2022-10-25T12:20:28.938Z,1.42
2022-10-25T12:21:40.899Z,1.50
2022-10-25T12:22:49.294Z,1.55
2022-10-25T12:23:54.552Z,1.77
2022-10-25T12:25:05.509Z,1.50
2022-10-25T12:27:18.354Z,1.50
2022-10-25T12:28:47.390Z,1.52
2022-10-25T12:30:00.570Z,1.42
2022-10-25T12:31:14.191Z,1.85
2022-10-25T12:32:31.334Z,1.38
2022-10-25T12:33:39.903Z,1.50
2022-10-25T12:34:47.991Z,2.50
2022-10-25T12:35:54.251Z,1.70
2022-10-25T12:37:03.114Z,1.60
2022-10-25T12:38:12.140Z,1.45
2022-10-25T12:39:19.862Z,1.60
2022-10-25T12:41:37.654Z,1.83
2022-10-25T12:43:02.142Z,1.92
2022-10-25T12:44:21.756Z,1.52
2022-10-25T12:45:51.070Z,1.58
2022-10-25T12:47:04.150Z,1.63
2022-10-25T12:48:25.360Z,1.30
2022-10-25T12:50:53.127Z,1.55
2022-10-25T12:52:17.018Z,1.70
2022-10-25T12:54:04.875Z,1.55
2022-10-25T12:55:33.870Z,1.55
2022-10-25T12:56:48.187Z,1.88
2022-10-25T12:57:59.239Z,2.08
2022-10-25T12:59:13.336Z,2.08
2022-10-25T13:02:13.050Z,1.70
2022-10-25T13:03:33.959Z,1.70
2022-10-25T13:04:42.480Z,1.80
2022-10-25T13:05:50.916Z,2.22
2022-10-25T13:06:54.149Z,2.05
2022-10-25T13:08:01.070Z,2.20
2022-10-25T13:09:13.195Z,1.25
2022-10-25T13:10:20.001Z,2.20
2022-10-25T13:11:33.092Z,1.75
2022-10-25T13:12:35.470Z,1.85
2022-10-25T13:13:51.470Z,1.60
2022-10-25T13:14:55.920Z,1.90
2022-10-25T13:16:01.090Z,1.73
2022-10-25T13:17:18.535Z,1.67
2022-10-25T13:18:42.875Z,1.30
2022-10-25T13:19:54.621Z,1.33
2022-10-25T13:21:00.924Z,1.35
2022-10-25T13:22:12.292Z,1.65
2022-10-25T13:23:42.853Z,1.63
2022-10-25T13:24:45.801Z,1.20
2022-10-25T13:25:48.157Z,1.70
2022-10-25T13:27:12.199Z,1.95
2022-10-25T13:28:14.623Z,1.48
2022-10-25T13:29:57.699Z,1.45
2022-10-25T13:31:45.091Z,1.35
2022-10-25T13:33:16.422Z,1.58
2022-10-25T13:34:28.636Z,1.35
2022-10-25T13:35:39.724Z,1.35
2022-10-25T13:36:52.305Z,1.30
2022-10-25T13:38:05.903Z,1.83
2022-10-25T13:39:17.559Z,1.55
2022-10-25T13:40:30.963Z,1.33
2022-10-25T13:41:44.608Z,1.50
2022-10-25T13:42:49.660Z,1.50
2022-10-25T13:43:59.550Z,1.30
2022-10-25T13:45:04.436Z,1.83
2022-10-25T13:46:10.398Z,1.42
2022-10-25T13:47:46.792Z,1.70
2022-10-25T13:48:49.060Z,1.20
2022-10-25T13:49:51.322Z,1.58
2022-10-25T13:51:09.993Z,1.45
2022-10-25T13:52:28.650Z,1.23
2022-10-25T13:53:44.826Z,2.55
2022-10-25T13:54:51.632Z,1.98
2022-10-25T13:56:03.307Z,2.10
2022-10-25T13:57:44.182Z,1.75
2022-10-25T13:58:56.879Z,1.70
2022-10-25T14:00:01.653Z,2.00
2022-10-25T14:01:31.439Z,1.65
2022-10-25T14:03:21.791Z,1.33
2022-10-25T14:04:35.290Z,1.23
2022-10-25T14:05:58.748Z,1.60
2022-10-25T14:07:38.353Z,1.35
2022-10-25T14:08:43.639Z,1.80
2022-10-25T14:09:46.208Z,1.63
2022-10-25T14:10:52.046Z,1.38
2022-10-25T14:12:06.561Z,1.60
2022-10-25T14:13:28.412Z,1.60
2022-10-25T14:14:53.247Z,1.30
2022-10-25T14:16:03.142Z,1.83
2022-10-25T14:17:08.578Z,1.70
2022-10-25T14:18:17.741Z,1.65
2022-10-25T14:19:37.947Z,2.63
2022-10-25T14:20:40.378Z,1.67
2022-10-25T14:21:51.755Z,1.75
2022-10-25T14:23:06.498Z,1.40
2022-10-25T14:24:14.195Z,1.88
2022-10-25T14:25:22.667Z,1.50
2022-10-25T14:26:25.065Z,1.50
2022-10-25T14:27:32.195Z,1.70
2022-10-25T14:28:35.837Z,1.70
2022-10-25T14:29:38.842Z,1.35
2022-10-25T14:30:46.758Z,1.48
2022-10-25T14:31:49.602Z,1.42
2022-10-25T14:32:54.233Z,1.63
2022-10-25T14:33:56.561Z,1.70
2022-10-25T14:34:59.083Z,2.03
2022-10-25T14:36:11.625Z,2.22
2022-10-25T14:37:15.199Z,1.90
2022-10-25T14:38:23.752Z,1.40
2022-10-25T14:39:31.815Z,1.50
2022-10-25T14:40:33.977Z,1.98
2022-10-25T14:41:36.286Z,1.27
2022-10-25T14:42:38.458Z,1.80
2022-10-25T14:43:42.823Z,1.20
2022-10-25T14:44:49.067Z,1.10
2022-10-25T14:46:06.393Z,1.50
2022-10-25T14:47:27.326Z,1.30
2022-10-25T14:48:30.487Z,1.35
2022-10-25T14:49:32.811Z,1.58
2022-10-25T14:50:35.380Z,1.75
2022-10-25T14:51:41.219Z,1.77
2022-10-25T14:52:46.469Z,3.28
2022-10-25T14:54:03.154Z,1.83
2022-10-25T14:55:06.669Z,2.50
2022-10-25T14:56:09.021Z,2.10
2022-10-25T14:57:11.549Z,1.60
2022-10-25T14:58:14.206Z,1.83
2022-10-25T14:59:28.395Z,1.85
2022-10-25T15:00:31.320Z,1.70
2022-10-25T15:01:34.222Z,2.25
2022-10-25T15:02:40.486Z,2.50
2022-10-25T15:03:46.056Z,2.05
2022-10-25T15:04:54.115Z,1.70
2022-10-25T15:05:59.204Z,2.05
2022-10-25T15:07:02.709Z,2.47
2022-10-25T15:08:05.053Z,1.80
2022-10-25T15:10:48.665Z,1.73
2022-10-25T15:12:10.366Z,1.40
2022-10-25T15:13:41.035Z,1.42
2022-10-25T15:14:43.645Z,1.80
2022-10-25T15:15:48.759Z,1.95
2022-10-25T15:17:02.053Z,1.90
2022-10-25T15:18:04.901Z,4.55
2022-10-25T15:19:09.790Z,4.50
2022-10-25T15:20:14.024Z,4.68
2022-10-25T15:21:18.265Z,2.65